Time;durP1;ratioP1;P1;durP2;ratioP2;P2;SDS_P1;SDS_P2;PMS_P1;PMS_P2;Temp;Humidity;BMP_temperature;BMP_pressure;BME280_temperature;BME280_humidity;BME280_pressure;Samples;Min_cycle;Max_cycle;Signal;HPM_P1;HPM_P2
2023/07/18 00:00:13;;;;;;;9.10;5.30;;;;;;;21.54;76.71;99044.12;223647;182;145730;-62
2023/07/18 00:05:37;;;;;;;8.20;5.30;;;;;;;21.56;76.77;99042.35;223770;182;141361;-62
2023/07/18 00:10:40;;;;;;;8.90;5.20;;;;;;;21.60;76.65;99038.83;223752;182;137994;-63
2023/07/18 00:15:44;;;;;;;11.20;6.30;;;;;;;21.61;76.54;99036.38;223710;182;145372;-62
2023/07/18 00:20:48;;;;;;;8.40;5.80;;;;;;;21.57;76.66;99033.16;223726;182;138459;-62
2023/07/18 00:25:51;;;;;;;12.30;6.20;;;;;;;21.51;76.58;99034.39;223687;182;137289;-63
2023/07/18 00:30:55;;;;;;;10.10;5.90;;;;;;;21.46;76.87;99044.73;223730;182;145743;-63
2023/07/18 00:35:58;;;;;;;10.00;6.50;;;;;;;21.45;76.92;99048.70;223700;182;140120;-63
2023/07/18 00:41:04;;;;;;;13.30;7.10;;;;;;;21.43;77.06;99050.52;223806;181;136821;-63
2023/07/18 00:46:09;;;;;;;13.70;8.00;;;;;;;21.39;77.06;99048.78;223752;182;145668;-63
2023/07/18 00:51:13;;;;;;;11.70;7.40;;;;;;;21.36;77.17;99051.88;223692;181;138195;-63
2023/07/18 00:56:16;;;;;;;12.60;6.90;;;;;;;21.30;77.15;99052.63;223730;182;138048;-63
2023/07/18 01:01:20;;;;;;;14.90;8.10;;;;;;;21.28;77.33;99055.56;223790;183;145487;-63
2023/07/18 01:06:24;;;;;;;14.50;7.30;;;;;;;21.27;77.52;99052.79;223546;182;138173;-62
2023/07/18 01:11:29;;;;;;;11.00;7.70;;;;;;;21.20;77.60;99044.64;223776;182;137058;-62
2023/07/18 01:16:33;;;;;;;10.90;7.10;;;;;;;21.11;77.80;99038.54;223786;182;146020;-63
2023/07/18 01:21:36;;;;;;;11.50;7.40;;;;;;;21.06;78.30;99034.63;223720;182;138288;-63
2023/07/18 01:26:39;;;;;;;14.00;7.50;;;;;;;21.06;78.51;99025.09;223650;182;137307;-62
2023/07/18 01:31:42;;;;;;;13.80;7.90;;;;;;;21.08;78.68;99029.13;223733;182;145057;-63
2023/07/18 01:36:46;;;;;;;9.00;7.40;;;;;;;21.10;78.75;99029.81;223702;181;138097;-63
2023/07/18 01:41:49;;;;;;;11.20;7.60;;;;;;;21.10;78.65;99038.40;223764;181;136850;-63
2023/07/18 01:46:54;;;;;;;10.80;7.50;;;;;;;21.08;78.64;99043.60;223555;182;145860;-63
2023/07/18 01:51:59;;;;;;;13.30;8.20;;;;;;;20.99;78.46;99047.52;223781;183;139720;-64
2023/07/18 02:02:06;;;;;;;16.10;8.30;;;;;;;20.97;78.59;99041.89;219639;193;666557;-63
2023/07/18 02:07:10;;;;;;;;;;;;;;;20.92;78.31;99039.48;223422;185;136638;-64
2023/07/18 02:12:14;;;;;;;11.70;7.30;;;;;;;20.88;78.34;99041.41;223587;184;145323;-63
2023/07/18 02:17:17;;;;;;;11.50;7.20;;;;;;;20.83;78.89;99044.07;223430;184;138627;-63
2023/07/18 02:22:21;;;;;;;11.40;7.70;;;;;;;20.84;79.14;99045.79;223427;184;136651;-63
2023/07/18 02:27:26;;;;;;;15.80;7.30;;;;;;;20.87;79.04;99057.16;223392;184;143163;-63
2023/07/18 02:32:30;;;;;;;14.10;7.30;;;;;;;20.87;79.20;99075.05;223627;183;138437;-63
2023/07/18 02:37:34;;;;;;;9.50;6.40;;;;;;;20.92;79.40;99089.30;223563;183;137923;-62
2023/07/18 02:42:37;;;;;;;11.90;7.40;;;;;;;20.91;79.04;99106.56;223590;183;143158;-63
2023/07/18 02:47:41;;;;;;;14.10;7.90;;;;;;;20.87;79.06;99109.47;223628;182;138440;-61
2023/07/18 02:52:48;;;;;;;9.00;7.50;;;;;;;20.83;78.86;99118.34;223589;183;137336;-63
2023/07/18 03:02:05;;;;;;;10.90;7.00;;;;;;;20.75;79.17;99121.17;220605;193;666197;-63
2023/07/18 03:07:08;;;;;;;8.60;6.50;;;;;;;20.75;79.35;99139.86;223614;183;136407;-64
2023/07/18 03:12:12;;;;;;;16.10;8.10;;;;;;;20.80;79.58;99156.16;223563;184;143497;-63
2023/07/18 03:17:20;;;;;;;9.90;7.60;;;;;;;20.84;79.50;99169.48;223503;183;138376;-63
2023/07/18 03:22:26;;;;;;;9.50;8.00;;;;;;;20.92;79.40;99180.05;223653;184;137171;-63
2023/07/18 03:27:29;;;;;;;11.00;8.40;;;;;;;21.06;79.34;99191.20;223712;181;143908;-62
2023/07/18 03:32:33;;;;;;;12.30;6.80;;;;;;;21.13;76.68;99196.23;223717;181;138443;-63
2023/07/18 03:37:37;;;;;;;12.00;6.00;;;;;;;21.09;74.83;99205.91;223798;182;136578;-63
2023/07/18 03:42:40;;;;;;;10.70;5.30;;;;;;;20.99;72.20;99217.33;223743;182;143990;-63
2023/07/18 03:47:44;;;;;;;10.10;4.90;;;;;;;20.89;71.44;99219.98;223624;181;138495;-62
2023/07/18 03:52:48;;;;;;;11.70;5.10;;;;;;;20.80;70.03;99217.70;223739;182;137642;-63
2023/07/18 03:57:51;;;;;;;10.30;4.30;;;;;;;20.72;68.98;99223.71;223774;181;147086;-62
2023/07/18 04:02:55;;;;;;;11.80;4.50;;;;;;;20.69;67.65;99222.80;223663;181;138657;-63
2023/07/18 04:07:58;;;;;;;12.10;4.40;;;;;;;20.70;66.26;99225.56;223762;182;137119;-62
2023/07/18 04:13:01;;;;;;;10.40;4.30;;;;;;;20.72;66.26;99238.01;223581;182;145610;-62
2023/07/18 04:18:05;;;;;;;8.80;4.40;;;;;;;20.70;66.62;99239.48;223718;182;138191;-63
2023/07/18 04:23:08;;;;;;;8.40;4.10;;;;;;;20.65;65.22;99248.20;223754;181;137193;-63
2023/07/18 04:28:11;;;;;;;8.00;4.00;;;;;;;20.62;65.16;99259.70;223724;183;147789;-63
2023/07/18 04:33:14;;;;;;;15.20;4.00;;;;;;;20.59;64.89;99279.86;223728;181;138247;-63
2023/07/18 04:38:17;;;;;;;8.40;3.80;;;;;;;20.59;63.93;99303.14;223684;182;137645;-63
2023/07/18 04:43:21;;;;;;;11.90;4.20;;;;;;;20.56;63.24;99325.92;223702;181;145120;-62
2023/07/18 04:48:24;;;;;;;8.00;3.90;;;;;;;20.56;63.10;99343.05;223731;182;138948;-63
2023/07/18 04:53:29;;;;;;;7.90;3.80;;;;;;;20.58;62.63;99347.98;223649;182;136836;-62
2023/07/18 04:58:32;;;;;;;11.70;5.40;;;;;;;20.62;62.16;99348.41;223754;182;145793;-63
2023/07/18 05:03:36;;;;;;;10.30;3.80;;;;;;;20.65;61.44;99355.48;223736;182;138436;-61
2023/07/18 05:08:59;;;;;;;6.20;4.00;;;;;;;20.65;61.49;99372.27;223802;182;138308;-62
2023/07/18 05:14:02;;;;;;;8.80;4.10;;;;;;;20.68;61.71;99379.16;223667;181;145594;-62
2023/07/18 05:19:05;;;;;;;11.70;5.00;;;;;;;20.71;61.55;99381.05;223749;182;138336;-62
2023/07/18 05:24:08;;;;;;;7.40;4.00;;;;;;;20.73;60.80;99382.13;223537;181;137255;-63
2023/07/18 05:29:12;;;;;;;7.70;3.40;;;;;;;20.76;59.94;99396.77;223777;181;145912;-59
2023/07/18 05:34:15;;;;;;;8.00;3.50;;;;;;;20.84;59.25;99402.54;223718;182;138438;-63
2023/07/18 05:39:18;;;;;;;8.90;4.30;;;;;;;20.91;58.77;99413.14;223763;182;137211;-62
2023/07/18 05:44:21;;;;;;;6.70;3.80;;;;;;;21.00;59.29;99414.10;223700;181;145286;-62
2023/07/18 05:49:25;;;;;;;7.60;4.00;;;;;;;21.04;59.50;99416.20;223750;183;138440;-62
2023/07/18 05:54:30;;;;;;;6.90;4.00;;;;;;;21.04;59.47;99417.79;223741;181;136684;-63
2023/07/18 06:02:05;;;;;;;9.40;4.10;;;;;;;21.11;59.58;99416.06;220811;192;665443;-62
2023/07/18 06:07:08;;;;;;;8.70;3.70;;;;;;;21.16;59.46;99422.38;223816;181;135717;-63
2023/07/18 06:12:12;;;;;;;7.90;3.60;;;;;;;21.21;58.37;99436.56;223761;181;143452;-63
2023/07/18 06:17:16;;;;;;;10.30;4.00;;;;;;;21.22;58.82;99433.93;223634;181;138213;-64
2023/07/18 06:22:19;;;;;;;6.10;3.70;;;;;;;21.30;58.51;99434.59;223689;180;137377;-63
2023/07/18 06:27:26;;;;;;;9.10;3.20;;;;;;;21.34;58.24;99439.36;223710;181;145285;-64
2023/07/18 06:32:30;;;;;;;10.90;3.30;;;;;;;21.35;57.25;99442.95;223754;181;138500;-64
2023/07/18 06:37:33;;;;;;;11.00;3.30;;;;;;;21.32;57.15;99451.66;223833;181;137028;-63
2023/07/18 06:42:36;;;;;;;9.20;3.30;;;;;;;21.26;56.29;99453.52;223833;181;143640;-64
2023/07/18 06:47:40;;;;;;;4.90;3.20;;;;;;;21.25;56.38;99455.56;223777;180;138364;-64
2023/07/18 06:52:43;;;;;;;9.50;3.20;;;;;;;21.35;56.41;99459.14;223681;181;137339;-64
2023/07/18 06:57:46;;;;;;;8.20;3.10;;;;;;;21.47;56.03;99460.14;223725;181;145987;-63
2023/07/18 07:02:49;;;;;;;5.40;3.10;;;;;;;21.57;55.26;99462.76;223653;181;139000;-64
2023/07/18 07:12:27;;;;;;;6.60;2.90;;;;;;;21.67;54.56;99467.27;220946;192;665750;-63
2023/07/18 07:17:44;;;;;;;5.00;3.00;;;;;;;21.69;53.91;99470.31;223715;184;136857;-62
2023/07/18 07:22:53;;;;;;;9.70;3.40;;;;;;;21.68;53.52;99469.73;223688;183;143671;-62
2023/07/18 07:27:57;;;;;;;9.90;3.60;;;;;;;21.69;53.74;99471.80;223736;183;139152;-62
2023/07/18 07:33:01;;;;;;;10.20;3.40;;;;;;;21.67;53.45;99470.02;223711;183;136740;-60
2023/07/18 07:38:05;;;;;;;7.70;3.60;;;;;;;21.69;53.71;99466.69;223695;182;143693;-62
2023/07/18 07:43:08;;;;;;;10.20;3.80;;;;;;;21.77;53.78;99466.45;223656;182;138202;-62
2023/07/18 07:48:11;;;;;;;6.90;3.70;;;;;;;21.86;53.65;99468.77;223651;183;136662;-60
2023/07/18 07:53:15;;;;;;;10.90;3.70;;;;;;;21.89;54.13;99470.59;223774;183;144017;-62
2023/07/18 07:58:18;;;;;;;7.80;3.30;;;;;;;21.94;54.10;99471.80;223657;183;138732;-62
2023/07/18 08:03:21;;;;;;;9.40;4.00;;;;;;;22.02;54.18;99467.39;223649;183;136669;-62
2023/07/18 08:08:25;;;;;;;8.30;3.70;;;;;;;22.10;53.82;99474.13;223592;183;145554;-62
2023/07/18 08:13:34;;;;;;;8.00;3.70;;;;;;;22.17;52.92;99470.52;223640;183;139023;-62
2023/07/18 08:18:38;;;;;;;6.50;2.90;;;;;;;22.26;52.10;99474.45;223703;183;136061;-62
2023/07/18 08:23:41;;;;;;;8.70;2.50;;;;;;;22.33;51.48;99468.09;223603;183;145267;-62
2023/07/18 08:28:47;;;;;;;4.40;2.40;;;;;;;22.45;51.31;99466.33;223635;183;138255;-62
2023/07/18 08:33:50;;;;;;;8.30;3.00;;;;;;;22.58;51.13;99460.63;223652;183;137107;-61
2023/07/18 08:38:54;;;;;;;5.80;3.00;;;;;;;22.69;50.37;99464.70;223737;181;145282;-62
2023/07/18 08:43:58;;;;;;;5.30;2.80;;;;;;;22.76;50.27;99462.17;223763;181;138425;-62
2023/07/18 08:49:06;;;;;;;7.80;2.90;;;;;;;22.84;50.51;99461.32;223695;181;136638;-62
2023/07/18 08:54:10;;;;;;;9.40;3.20;;;;;;;22.96;50.80;99456.42;223751;181;145216;-62
2023/07/18 08:59:14;;;;;;;4.70;2.50;;;;;;;23.13;50.09;99450.09;223663;181;140150;-62
2023/07/18 09:04:21;;;;;;;4.90;2.50;;;;;;;23.24;47.65;99456.33;223735;181;136398;-63
2023/07/18 09:09:25;;;;;;;4.40;2.70;;;;;;;23.39;47.48;99454.46;223799;181;146216;-62
2023/07/18 09:14:31;;;;;;;7.60;2.80;;;;;;;23.47;47.67;99448.19;223715;181;138587;-62
2023/07/18 09:19:45;;;;;;;13.00;3.60;;;;;;;23.56;47.40;99449.93;223670;181;137068;-62
2023/07/18 09:24:48;;;;;;;5.30;3.00;;;;;;;23.66;47.12;99444.70;223652;181;145624;-62
2023/07/18 09:29:56;;;;;;;4.60;2.90;;;;;;;23.70;46.52;99441.52;223662;181;138333;-62
2023/07/18 09:35:01;;;;;;;7.30;2.80;;;;;;;23.81;45.91;99433.06;223643;181;136885;-62
2023/07/18 09:40:07;;;;;;;5.80;3.00;;;;;;;23.88;44.87;99431.21;223756;181;145455;-63
2023/07/18 09:45:15;;;;;;;17.20;2.50;;;;;;;23.90;45.14;99423.48;223697;181;138316;-64
2023/07/18 09:50:18;;;;;;;4.40;2.30;;;;;;;24.03;44.28;99418.12;223718;181;136577;-63
2023/07/18 09:55:29;;;;;;;5.40;2.50;;;;;;;24.11;43.26;99414.67;223772;181;145153;-64
2023/07/18 10:00:35;;;;;;;6.90;2.60;;;;;;;24.23;43.20;99410.18;223751;181;138835;-64
2023/07/18 10:05:39;;;;;;;5.80;2.30;;;;;;;24.29;42.56;99407.69;223713;181;138828;-64
2023/07/18 10:10:59;;;;;;;5.80;2.30;;;;;;;24.37;41.19;99403.72;223685;181;145308;-64
2023/07/18 10:16:16;;;;;;;4.10;2.40;;;;;;;24.48;41.73;99398.20;223646;181;138210;-63
2023/07/18 10:21:29;;;;;;;5.90;2.10;;;;;;;24.81;41.83;99395.14;223743;182;137195;-64
2023/07/18 10:26:33;;;;;;;5.20;2.40;;;;;;;25.01;42.42;99391.46;223734;181;145821;-64
2023/07/18 10:31:37;;;;;;;6.70;2.20;;;;;;;25.20;40.92;99380.59;223793;181;138362;-64
2023/07/18 10:36:57;;;;;;;4.70;2.10;;;;;;;25.35;39.35;99376.83;223714;181;136488;-64
2023/07/18 10:42:25;;;;;;;5.90;2.20;;;;;;;25.42;38.53;99375.95;223743;181;145879;-62
2023/07/18 10:47:28;;;;;;;4.70;2.20;;;;;;;25.58;39.62;99365.65;223758;180;138030;-64
2023/07/18 10:52:32;;;;;;;5.00;2.30;;;;;;;25.87;38.90;99362.64;223811;181;139039;-64
2023/07/18 11:02:06;;;;;;;6.80;2.30;;;;;;;26.35;38.81;99353.11;221839;193;667304;-63
2023/07/18 11:07:10;;;;;;;4.60;2.40;;;;;;;26.52;37.83;99347.39;223522;185;136833;-63
2023/07/18 11:12:18;;;;;;;4.30;2.20;;;;;;;26.63;37.73;99336.86;223426;185;143839;-62
2023/07/18 11:17:21;;;;;;;4.70;1.90;;;;;;;26.87;37.47;99329.73;223341;185;138429;-63
2023/07/18 11:22:25;;;;;;;7.10;2.00;;;;;;;26.93;35.78;99329.94;223606;184;262362;-63
2023/07/18 11:27:31;;;;;;;5.70;2.40;;;;;;;27.00;34.50;99320.09;223850;182;143072;-64
2023/07/18 11:32:38;;;;;;;5.60;2.40;;;;;;;27.30;35.22;99313.02;223759;183;138925;-63
2023/07/18 11:37:46;;;;;;;5.10;1.90;;;;;;;27.48;33.98;99310.88;223879;183;137125;-64
2023/07/18 11:42:51;;;;;;;5.00;2.10;;;;;;;27.50;33.43;99300.08;223918;182;143426;-64
2023/07/18 11:47:57;;;;;;;6.00;2.30;;;;;;;27.46;33.20;99305.23;223736;182;139886;-64
2023/07/18 11:53:03;;;;;;;7.10;2.20;;;;;;;27.36;33.54;99294.79;223638;182;140758;-63
2023/07/18 11:58:08;;;;;;;4.50;2.40;;;;;;;27.55;34.56;99285.94;223705;182;145251;-63
2023/07/18 12:03:11;;;;;;;4.70;2.40;;;;;;;27.38;34.22;99280.42;223680;182;139000;-63
2023/07/18 12:08:16;;;;;;;7.60;2.30;;;;;;;27.36;33.79;99279.93;223631;182;137535;-62
2023/07/18 12:13:20;;;;;;;4.80;1.90;;;;;;;27.62;32.74;99282.27;223692;182;145180;-63
2023/07/18 12:18:24;;;;;;;3.90;1.90;;;;;;;27.98;31.58;99281.38;223641;182;138864;-63
2023/07/18 12:23:36;;;;;;;2.10;1.60;;;;;;;28.16;30.50;99281.48;223597;182;137110;-62
2023/07/18 12:28:39;;;;;;;3.10;1.90;;;;;;;28.22;29.97;99269.16;223731;181;145706;-64
2023/07/18 12:33:43;;;;;;;3.50;1.90;;;;;;;28.34;30.35;99261.36;223679;181;138781;-63
2023/07/18 12:38:46;;;;;;;3.30;2.00;;;;;;;28.49;29.57;99257.34;223721;181;136089;-63
2023/07/18 12:43:50;;;;;;;3.90;1.90;;;;;;;28.19;30.04;99256.69;223791;182;145180;-63
2023/07/18 12:48:55;;;;;;;3.80;1.90;;;;;;;28.43;31.21;99245.17;223741;181;138470;-63
2023/07/18 12:54:02;;;;;;;4.20;2.00;;;;;;;28.99;30.88;99247.14;223790;181;150533;-63
2023/07/18 12:59:07;;;;;;;5.90;2.30;;;;;;;29.20;29.92;99246.98;223759;181;145030;-64
2023/07/18 13:04:10;;;;;;;3.90;1.90;;;;;;;29.31;29.78;99241.27;223727;181;140254;-64
2023/07/18 13:09:13;;;;;;;3.60;2.00;;;;;;;29.47;29.15;99233.91;223711;181;137489;-64
2023/07/18 13:14:21;;;;;;;5.80;2.00;;;;;;;29.17;29.15;99233.30;223627;181;145754;-64
2023/07/18 13:19:32;;;;;;;4.80;1.90;;;;;;;29.14;28.99;99228.91;223729;181;138989;-64
2023/07/18 13:24:35;;;;;;;4.50;2.20;;;;;;;29.42;29.42;99227.50;223772;181;138792;-64
2023/07/18 13:29:41;;;;;;;4.10;2.00;;;;;;;29.66;28.78;99224.25;223839;181;145150;-64
2023/07/18 13:34:44;;;;;;;3.70;1.70;;;;;;;29.94;28.85;99216.11;223719;181;138788;-65
2023/07/18 13:39:48;;;;;;;2.80;1.80;;;;;;;30.13;28.17;99214.88;223813;181;136654;-64
2023/07/18 13:44:52;;;;;;;2.80;1.50;;;;;;;30.22;27.58;99210.75;223728;180;145719;-64
2023/07/18 13:49:55;;;;;;;3.30;1.80;;;;;;;30.46;27.54;99209.92;223781;181;138071;-64
2023/07/18 13:54:58;;;;;;;5.10;1.80;;;;;;;30.57;26.95;99202.88;223757;181;136140;-64
2023/07/18 14:02:06;;;;;;;4.00;2.00;;;;;;;30.68;26.42;99187.25;219768;193;665636;-64
2023/07/18 14:07:09;;;;;;;;;;;;;;;30.63;26.03;99183.48;223950;181;137407;-64
2023/07/18 14:12:14;;;;;;;4.40;1.70;;;;;;;30.58;26.00;99174.17;224114;180;144000;-63
2023/07/18 14:17:17;;;;;;;8.10;1.90;;;;;;;30.48;25.83;99167.73;224026;180;138526;-65
2023/07/18 14:22:20;;;;;;;2.40;1.70;;;;;;;30.33;26.16;99162.41;223924;180;137050;-64
2023/07/18 14:27:24;;;;;;;4.30;1.90;;;;;;;30.17;26.46;99152.98;223892;180;143400;-64
2023/07/18 14:32:27;;;;;;;3.10;1.60;;;;;;;30.09;26.81;99147.48;223991;180;138440;-64
2023/07/18 14:37:30;;;;;;;3.20;1.90;;;;;;;29.91;26.46;99139.67;224020;180;136521;-65
2023/07/18 14:42:34;;;;;;;4.70;1.80;;;;;;;29.69;26.54;99145.33;223826;180;143930;-64
2023/07/18 14:47:37;;;;;;;5.00;1.80;;;;;;;29.43;25.96;99154.39;223824;180;139156;-64
2023/07/18 14:52:42;;;;;;;2.60;1.50;;;;;;;29.10;25.84;99165.36;224019;180;137275;-65
2023/07/18 14:57:45;;;;;;;4.00;1.70;;;;;;;28.80;26.29;99151.77;223886;180;145789;-65
2023/07/18 15:02:48;;;;;;;3.90;2.20;;;;;;;28.57;26.94;99148.15;223734;181;138119;-63
2023/07/18 15:07:51;;;;;;;2.70;1.40;;;;;;;28.37;26.94;99143.69;223959;180;136970;-64
2023/07/18 15:12:55;;;;;;;3.10;1.70;;;;;;;28.11;26.69;99136.66;223881;181;144468;-64
2023/07/18 15:17:58;;;;;;;4.10;1.90;;;;;;;27.94;27.44;99132.48;223790;180;138418;-64
2023/07/18 15:23:01;;;;;;;3.70;1.80;;;;;;;27.76;27.21;99124.78;223778;181;136507;-63
2023/07/18 15:28:05;;;;;;;2.00;1.30;;;;;;;27.62;27.65;99115.91;223890;180;145395;-62
2023/07/18 15:33:09;;;;;;;3.80;1.90;;;;;;;27.52;28.10;99111.10;223827;181;140501;-62
2023/07/18 15:38:29;;;;;;;2.70;1.80;;;;;;;27.40;28.48;99113.39;223806;181;136681;-63
2023/07/18 15:43:35;;;;;;;3.30;1.60;;;;;;;27.29;28.72;99117.63;223839;181;145223;-63
2023/07/18 15:48:43;;;;;;;4.40;1.90;;;;;;;27.19;29.22;99112.98;223701;181;138231;-62
2023/07/18 15:53:47;;;;;;;5.70;1.70;;;;;;;27.10;29.62;99099.05;223752;181;137492;-63
2023/07/18 15:58:52;;;;;;;9.80;6.30;;;;;;;27.08;29.88;99088.98;223913;180;145277;-62
2023/07/18 16:03:55;;;;;;;4.20;2.00;;;;;;;27.09;30.06;99080.38;223649;181;138733;-63
2023/07/18 16:08:59;;;;;;;6.90;1.90;;;;;;;27.10;30.27;99069.34;223786;181;137307;-63
2023/07/18 16:14:02;;;;;;;6.40;2.80;;;;;;;27.07;29.65;99050.71;223864;181;144959;-62
2023/07/18 16:19:06;;;;;;;3.90;1.80;;;;;;;27.02;30.13;99038.60;223642;181;139498;-62
2023/07/18 16:24:09;;;;;;;3.40;1.70;;;;;;;26.97;30.27;99023.83;223742;181;137531;-58
2023/07/18 17:06:14;;;;;;;18.80;15.20;;;;;;;26.62;31.68;99043.42;222081;193;676626;-63
2023/07/18 17:11:20;;;;;;;3.60;2.00;;;;;;;26.52;31.86;99040.86;223687;183;137186;-64
2023/07/18 17:16:24;;;;;;;5.10;1.70;;;;;;;26.46;32.41;99038.61;223875;181;143498;-63
2023/07/18 17:21:27;;;;;;;4.70;2.10;;;;;;;26.41;32.55;99045.65;223700;180;139027;-62
2023/07/18 17:26:31;;;;;;;5.30;1.90;;;;;;;26.37;32.76;99055.15;223832;181;136502;-62
2023/07/18 17:31:35;;;;;;;3.10;1.90;;;;;;;26.32;34.05;99050.23;223786;181;143335;-63
2023/07/18 17:36:38;;;;;;;5.40;2.00;;;;;;;26.24;33.78;99045.17;223810;181;138758;-62
2023/07/18 17:41:41;;;;;;;3.40;2.00;;;;;;;26.19;33.90;99036.55;223813;181;137081;-62
2023/07/18 17:46:46;;;;;;;4.90;2.10;;;;;;;26.12;34.35;99033.69;223823;181;143449;-64
2023/07/18 17:51:55;;;;;;;5.50;2.70;;;;;;;26.07;35.62;99021.05;223678;182;138309;-62
2023/07/18 17:56:59;;;;;;;3.60;2.00;;;;;;;25.97;35.28;99013.55;223784;181;136603;-62
2023/07/18 18:02:02;;;;;;;7.60;2.80;;;;;;;25.91;36.24;99006.26;223797;182;145688;-62
2023/07/18 18:07:06;;;;;;;4.80;2.20;;;;;;;25.89;35.79;99011.81;223647;181;138210;-58
2023/07/18 18:12:09;;;;;;;7.70;2.80;;;;;;;25.91;35.55;98988.30;223782;182;140807;-62
2023/07/18 18:17:13;;;;;;;5.10;2.60;;;;;;;25.78;38.53;98967.17;223718;181;145519;-60
2023/07/18 18:22:16;;;;;;;9.70;2.60;;;;;;;25.63;37.96;98977.15;223641;181;139192;-62
2023/07/18 18:27:19;;;;;;;5.00;2.80;;;;;;;25.50;38.10;98978.70;223658;181;136774;-62
2023/07/18 18:32:22;;;;;;;6.40;2.40;;;;;;;25.37;39.22;98986.91;223803;182;146202;-62
2023/07/18 18:37:26;;;;;;;8.50;3.60;;;;;;;25.21;39.35;98997.38;223698;181;138820;-62
2023/07/18 18:42:29;;;;;;;5.50;2.20;;;;;;;25.10;40.25;98987.90;223720;182;137278;-62
2023/07/18 18:47:32;;;;;;;12.60;2.40;;;;;;;25.01;41.39;98983.88;223558;181;145203;-63
2023/07/18 18:52:37;;;;;;;5.30;2.50;;;;;;;24.91;41.40;98994.14;223694;181;138618;-62
2023/07/18 18:57:40;;;;;;;19.20;2.90;;;;;;;24.79;42.29;98992.59;223604;182;137042;-62
2023/07/18 19:02:43;;;;;;;11.20;2.90;;;;;;;24.68;42.12;98998.41;223754;181;145323;-61
2023/07/18 19:07:47;;;;;;;6.40;3.00;;;;;;;24.55;42.31;99005.13;223667;181;138301;-61
2023/07/18 19:12:50;;;;;;;8.50;3.10;;;;;;;24.42;42.40;99014.30;223685;182;136439;-62
2023/07/18 19:17:53;;;;;;;7.30;4.20;;;;;;;24.34;43.24;99019.07;223577;181;145075;-60
2023/07/18 19:23:00;;;;;;;7.10;3.50;;;;;;;24.25;44.46;99027.35;223688;181;138788;-62
2023/07/18 19:28:03;;;;;;;10.20;3.20;;;;;;;24.17;45.17;99019.79;223713;182;136566;-62
2023/07/18 19:33:07;;;;;;;9.60;3.30;;;;;;;24.10;45.84;99022.80;223598;181;145947;-62
2023/07/18 19:38:10;;;;;;;16.30;3.90;;;;;;;24.04;46.08;99018.95;223632;182;140257;-62
2023/07/18 19:43:14;;;;;;;8.50;3.90;;;;;;;24.00;47.29;99011.34;223764;182;136406;-62
2023/07/18 19:48:19;;;;;;;10.80;3.70;;;;;;;23.94;47.42;99001.66;223646;181;145172;-62
2023/07/18 19:53:24;;;;;;;8.40;3.20;;;;;;;23.98;47.56;98996.00;223696;182;138300;-62
2023/07/18 19:58:28;;;;;;;10.50;3.10;;;;;;;24.04;47.51;98985.67;223670;181;137122;-62
2023/07/18 20:12:57;;;;;;;16.70;4.40;;;;;;;23.71;48.62;98970.15;219684;193;666287;-63
2023/07/18 20:18:03;;;;;;;9.90;4.00;;;;;;;23.38;49.18;98972.77;223547;183;136752;-64
2023/07/18 20:23:06;;;;;;;12.30;4.00;;;;;;;23.11;50.13;98970.16;223747;183;143228;-63
2023/07/18 20:28:10;;;;;;;7.70;3.60;;;;;;;22.91;50.83;98977.92;223716;183;139891;-63
2023/07/18 20:33:14;;;;;;;9.40;3.90;;;;;;;22.79;50.88;98973.41;223726;182;136916;-62
2023/07/18 20:38:17;;;;;;;7.20;3.50;;;;;;;22.66;51.97;98970.43;223844;183;143925;-62
2023/07/18 20:43:20;;;;;;;13.80;4.10;;;;;;;22.56;52.47;98966.98;223751;182;138213;-62
2023/07/18 20:48:24;;;;;;;13.40;3.20;;;;;;;22.48;52.66;98969.34;223783;183;136428;-62
2023/07/18 20:53:28;;;;;;;6.90;3.30;;;;;;;22.41;52.43;98967.31;223726;183;144001;-62
2023/07/18 20:58:32;;;;;;;10.30;3.20;;;;;;;22.32;53.13;98972.48;223715;183;139266;-63
2023/07/18 21:03:36;;;;;;;10.50;3.10;;;;;;;22.26;53.91;98974.29;223711;182;138082;-62
2023/07/18 21:08:39;;;;;;;8.60;3.30;;;;;;;22.19;54.39;98973.08;223711;183;146969;-62
2023/07/18 21:13:43;;;;;;;9.60;4.00;;;;;;;22.12;54.88;98961.37;223741;183;140682;-62
2023/07/18 21:18:48;;;;;;;10.10;4.20;;;;;;;22.05;55.12;98957.09;223731;183;136933;-63
2023/07/18 21:23:51;;;;;;;9.10;4.00;;;;;;;21.97;55.28;98949.68;223660;182;145372;-62
2023/07/18 21:28:58;;;;;;;;;;;;;;;21.86;55.52;98955.06;223557;183;138690;-64
2023/07/18 21:34:09;;;;;;;9.10;3.40;;;;;;;21.75;55.75;98955.85;223735;183;129025;-64
2023/07/18 21:39:12;;;;;;;11.40;3.80;;;;;;;21.65;56.10;98958.77;223671;183;145226;-64
2023/07/18 21:44:15;;;;;;;7.70;4.10;;;;;;;21.60;56.52;98964.23;223656;183;138375;-62
2023/07/18 21:49:18;;;;;;;7.40;4.00;;;;;;;21.52;56.56;98955.55;223635;183;137034;-62
2023/07/18 21:54:22;;;;;;;8.10;4.00;;;;;;;21.42;57.00;98954.73;223622;183;145198;-62
2023/07/18 21:59:25;;;;;;;9.40;4.50;;;;;;;21.34;57.08;98951.31;223614;183;138264;-62
2023/07/18 22:04:28;;;;;;;10.40;4.30;;;;;;;21.24;57.39;98946.20;223690;182;136391;-62
2023/07/18 22:09:32;;;;;;;9.60;4.30;;;;;;;21.19;57.44;98938.64;223524;182;145167;-62
2023/07/18 22:14:35;;;;;;;9.90;4.50;;;;;;;21.14;57.87;98934.53;223719;183;138226;-61
2023/07/18 22:19:38;;;;;;;8.40;4.30;;;;;;;21.09;57.78;98924.30;223610;182;136795;-62
2023/07/18 22:24:41;;;;;;;14.40;4.70;;;;;;;21.03;58.07;98923.64;223741;183;145263;-62
2023/07/18 22:29:44;;;;;;;7.10;4.50;;;;;;;20.95;58.43;98911.89;223616;182;138840;-63
2023/07/18 22:34:47;;;;;;;9.90;4.80;;;;;;;20.87;58.12;98906.38;223748;183;266451;-62
2023/07/18 22:39:51;;;;;;;10.20;5.50;;;;;;;20.82;57.98;98898.45;223603;182;147588;-62
2023/07/18 22:44:54;;;;;;;8.50;5.20;;;;;;;20.78;57.87;98886.27;223682;182;138920;-62
2023/07/18 22:50:01;;;;;;;11.40;6.20;;;;;;;20.72;58.07;98877.85;223735;182;136988;-62
2023/07/18 22:55:10;;;;;;;10.10;6.10;;;;;;;20.63;58.19;98873.60;223671;182;145450;-62
2023/07/18 23:00:14;;;;;;;14.00;7.00;;;;;;;20.56;58.44;98875.12;223628;183;138773;-62
2023/07/18 23:05:17;;;;;;;10.40;6.80;;;;;;;20.48;58.67;98881.67;223693;182;137201;-62
2023/07/18 23:10:20;;;;;;;12.70;6.80;;;;;;;20.42;58.92;98883.93;223783;181;145286;-62
2023/07/18 23:15:24;;;;;;;12.10;6.50;;;;;;;20.37;59.13;98873.15;223710;182;138589;-62
2023/07/18 23:20:27;;;;;;;10.30;6.10;;;;;;;20.32;59.60;98863.34;223273;178;138757;-61
2023/07/18 23:25:31;;;;;;;11.10;6.20;;;;;;;20.26;59.76;98845.60;223691;181;145447;-62
2023/07/18 23:30:34;;;;;;;9.20;5.90;;;;;;;20.19;60.13;98840.54;223550;182;138457;-62
2023/07/18 23:35:37;;;;;;;10.60;6.10;;;;;;;20.17;59.84;98834.27;223789;181;137394;-62
2023/07/18 23:40:40;;;;;;;9.10;6.20;;;;;;;20.14;59.61;98826.92;223663;182;146063;-62
2023/07/18 23:45:44;;;;;;;10.30;5.60;;;;;;;20.07;59.45;98812.98;223667;181;138927;-62
2023/07/18 23:50:48;;;;;;;10.20;5.20;;;;;;;20.03;59.56;98808.42;223798;181;136749;-63
2023/07/18 23:55:51;;;;;;;10.60;5.00;;;;;;;19.98;59.60;98807.83;223676;181;145122;-62
